createdAt,value
2019-04-10T00:01:45.540Z,72.47
2019-04-10T00:06:47.957Z,71.61
2019-04-10T00:11:51.145Z,71.58
2019-04-10T00:16:54.320Z,71.36
2019-04-10T00:21:57.779Z,71.89
2019-04-10T00:27:00.142Z,71.94
2019-04-10T00:32:02.365Z,71.53
2019-04-10T00:37:05.767Z,72.39
2019-04-10T00:42:08.498Z,72.39
2019-04-10T00:47:10.911Z,72.12
2019-04-10T00:52:12.957Z,71.70
2019-04-10T00:57:15.063Z,71.74
2019-04-10T01:02:17.109Z,71.76
2019-04-10T01:07:32.128Z,71.65
2019-04-10T01:12:23.655Z,71.46
2019-04-10T01:17:26.336Z,71.11
2019-04-10T01:22:28.509Z,70.75
2019-04-10T01:27:30.730Z,69.87
2019-04-10T01:32:32.882Z,69.87
2019-04-10T01:37:46.734Z,69.32
2019-04-10T01:42:39.041Z,68.55
2019-04-10T01:47:41.477Z,67.58
2019-04-10T01:52:43.648Z,67.58
2019-04-10T01:57:46.331Z,67.30
2019-04-10T02:02:50.355Z,67.39
2019-04-10T02:08:02.162Z,66.19
2019-04-10T02:12:56.993Z,66.19
2019-04-10T02:17:59.213Z,66.36
2019-04-10T02:23:01.727Z,66.20
2019-04-10T02:28:04.890Z,66.45
2019-04-10T02:33:08.348Z,65.22
2019-04-10T02:38:27.455Z,65.22
2019-04-10T02:43:16.131Z,65.23
2019-04-10T02:48:19.354Z,64.49
2019-04-10T02:53:22.076Z,65.35
2019-04-10T02:58:26.525Z,64.69
2019-04-10T03:03:29.998Z,63.70
2019-04-10T03:08:44.692Z,63.73
2019-04-10T03:13:37.945Z,63.20
2019-04-10T03:18:41.028Z,63.54
2019-04-10T03:23:43.233Z,63.54
2019-04-10T03:28:45.339Z,63.71
2019-04-10T03:34:18.820Z,63.51
2019-04-10T03:39:20.189Z,63.61
2019-04-10T03:44:22.868Z,64.03
2019-04-10T03:49:25.557Z,63.75
2019-04-10T03:54:28.040Z,63.73
2019-04-10T03:59:30.603Z,64.05
2019-04-10T04:04:33.361Z,63.01
2019-04-10T04:09:35.677Z,62.90
2019-04-10T04:14:38.734Z,62.90
2019-04-10T04:19:41.860Z,63.10
2019-04-10T04:24:44.283Z,63.14
2019-04-10T04:29:47.461Z,62.22
2019-04-10T04:34:49.844Z,62.41
2019-04-10T04:39:52.171Z,62.54
2019-04-10T04:44:54.506Z,62.66
2019-04-10T04:49:56.605Z,63.22
2019-04-10T04:54:58.704Z,63.52
2019-04-10T05:00:01.147Z,63.30
2019-04-10T05:05:04.465Z,63.17
2019-04-10T05:10:07.170Z,62.78
2019-04-10T05:15:09.573Z,63.73
2019-04-10T05:20:12.198Z,64.11
2019-04-10T05:25:14.287Z,63.59
2019-04-10T05:30:16.504Z,63.73
2019-04-10T05:35:19.297Z,63.39
2019-04-10T05:40:21.570Z,63.47
2019-04-10T05:45:23.996Z,63.51
2019-04-10T05:50:26.072Z,63.86
2019-04-10T05:55:28.879Z,63.72
2019-04-10T06:00:31.017Z,64.55
2019-04-10T06:05:34.114Z,63.98
2019-04-10T06:10:36.379Z,64.33
2019-04-10T06:15:39.145Z,64.28
2019-04-10T06:20:41.829Z,64.54
2019-04-10T06:25:43.913Z,64.62
2019-04-10T06:30:46.019Z,64.96
2019-04-10T06:35:48.966Z,64.33
2019-04-10T06:40:52.315Z,64.96
2019-04-10T06:45:54.501Z,65.32
2019-04-10T06:50:56.636Z,65.64
2019-04-10T06:55:58.670Z,65.20
2019-04-10T07:01:01.802Z,65.72
2019-04-10T07:06:11.453Z,64.78
2019-04-10T07:11:10.575Z,65.60
2019-04-10T07:16:12.742Z,65.18
2019-04-10T07:21:14.809Z,65.44
2019-04-10T07:26:22.740Z,65.00
2019-04-10T07:31:21.418Z,65.24
2019-04-10T07:36:24.529Z,65.09
2019-04-10T07:41:26.649Z,64.22
2019-04-10T07:46:28.715Z,63.66
2019-04-10T07:51:31.806Z,63.39
2019-04-10T07:56:35.369Z,62.85
2019-04-10T08:01:37.610Z,62.36
2019-04-10T08:06:39.638Z,62.05
2019-04-10T08:11:42.544Z,62.05
2019-04-10T08:16:45.555Z,61.69
2019-04-10T08:21:47.682Z,61.41
2019-04-10T08:26:49.724Z,62.06
2019-04-10T08:31:52.518Z,60.81
2019-04-10T08:36:56.489Z,60.27
2019-04-10T08:41:58.679Z,59.16
2019-04-10T08:47:00.721Z,59.16
2019-04-10T08:52:03.956Z,58.27
2019-04-10T08:57:07.322Z,58.10
2019-04-10T09:02:09.653Z,57.33
2019-04-10T09:07:11.753Z,57.33
2019-04-10T09:12:13.899Z,55.95
2019-04-10T09:17:15.983Z,55.95
2019-04-10T09:22:18.048Z,56.00
2019-04-10T09:27:21.217Z,56.54
2019-04-10T09:32:23.462Z,55.42
2019-04-10T09:37:26.127Z,55.15
2019-04-10T09:42:28.254Z,54.47
2019-04-10T09:47:30.446Z,53.90
2019-04-10T09:52:32.465Z,53.34
2019-04-10T09:57:34.653Z,52.89
2019-04-10T10:02:37.871Z,52.71
2019-04-10T10:07:41.056Z,51.54
2019-04-10T10:12:43.144Z,50.94
2019-04-10T10:17:46.603Z,50.72
2019-04-10T10:22:49.505Z,50.61
2019-04-10T10:27:51.686Z,50.60
2019-04-10T10:32:53.746Z,51.09
2019-04-10T10:37:56.874Z,49.22
2019-04-10T10:43:00.232Z,48.99
2019-04-10T10:48:03.316Z,48.71
2019-04-10T10:53:06.121Z,48.25
2019-04-10T10:58:08.312Z,47.39
2019-04-10T11:03:10.367Z,47.07
2019-04-10T11:08:13.072Z,47.08
2019-04-10T11:13:15.258Z,44.98
2019-04-10T11:18:18.133Z,46.23
2019-04-10T11:23:20.223Z,45.74
2019-04-10T11:28:28.620Z,45.51
2019-04-10T11:33:26.351Z,43.85
2019-04-10T11:38:29.056Z,44.00
2019-04-10T11:43:31.228Z,43.26
2019-04-10T11:48:34.099Z,42.83
2019-04-10T11:53:41.294Z,41.84
2019-04-10T11:58:50.718Z,41.81
2019-04-10T12:03:49.077Z,42.12
2019-04-10T12:09:08.276Z,43.04
2019-04-10T12:13:52.131Z,40.84
2019-04-10T12:18:55.867Z,40.63
2019-04-10T12:23:58.925Z,40.03
2019-04-10T12:29:00.952Z,40.24
2019-04-10T12:34:04.575Z,39.74
2019-04-10T12:39:08.405Z,39.37
2019-04-10T12:44:11.595Z,39.51
2019-04-10T12:49:15.054Z,40.90
2019-04-10T12:54:17.374Z,39.26
2019-04-10T12:59:19.537Z,40.08
2019-04-10T13:04:22.302Z,39.42
2019-04-10T13:09:24.460Z,40.49
2019-04-10T13:14:26.600Z,39.52
2019-04-10T13:19:29.159Z,39.52
2019-04-10T13:24:31.386Z,39.09
2019-04-10T13:29:33.762Z,40.12
2019-04-10T13:34:35.844Z,38.63
2019-04-10T13:39:39.028Z,40.20
2019-04-10T13:44:42.453Z,39.43
2019-04-10T13:49:44.631Z,39.16
2019-04-10T13:54:47.126Z,38.03
2019-04-10T13:59:49.335Z,38.62
2019-04-10T14:04:51.445Z,38.57
2019-04-10T14:09:54.451Z,38.30
2019-04-10T14:14:57.321Z,37.79
2019-04-10T14:20:00.121Z,36.90
2019-04-10T14:25:03.137Z,36.87
2019-04-10T14:30:09.163Z,35.64
2019-04-10T14:35:11.480Z,34.74
2019-04-10T14:40:14.455Z,35.44
2019-04-10T14:45:17.201Z,35.87
2019-04-10T14:50:19.772Z,35.40
2019-04-10T14:55:22.128Z,35.85
2019-04-10T15:00:37.734Z,36.14
2019-04-10T15:05:48.636Z,36.19
2019-04-10T15:10:44.004Z,35.47
2019-04-10T15:15:46.132Z,34.97
2019-04-10T15:20:49.188Z,23.86
2019-04-10T15:25:51.513Z,24.40
2019-04-10T15:30:53.742Z,24.68
2019-04-10T15:35:55.786Z,25.79
2019-04-10T15:40:58.727Z,30.08
2019-04-10T15:46:00.911Z,31.79
2019-04-10T15:51:03.621Z,32.37
2019-04-10T15:56:05.795Z,32.68
2019-04-10T16:01:11.825Z,32.77
2019-04-10T16:06:14.008Z,32.79
2019-04-10T16:11:54.344Z,32.61
2019-04-10T16:17:25.798Z,33.75
2019-04-10T16:22:31.314Z,33.46
2019-04-10T16:27:33.428Z,34.33
2019-04-10T16:32:35.437Z,34.37
2019-04-10T16:37:37.662Z,34.42
2019-04-10T16:42:41.372Z,35.90
2019-04-10T16:47:44.033Z,36.00
2019-04-10T16:52:47.371Z,36.10
2019-04-10T16:57:49.875Z,36.77
2019-04-10T17:02:52.714Z,36.99
2019-04-10T17:07:55.378Z,36.77
2019-04-10T17:12:58.261Z,37.05
2019-04-10T17:18:01.050Z,37.13
2019-04-10T17:23:04.888Z,37.22
2019-04-10T17:28:08.037Z,37.73
2019-04-10T17:33:11.057Z,38.82
2019-04-10T17:38:14.218Z,38.91
2019-04-10T17:43:16.978Z,39.38
2019-04-10T17:48:20.012Z,39.28
2019-04-10T17:53:23.139Z,39.93
2019-04-10T17:58:25.462Z,40.54
2019-04-10T18:03:40.526Z,40.33
2019-04-10T18:08:32.655Z,41.60
2019-04-10T18:13:34.861Z,41.63
2019-04-10T18:18:37.995Z,42.65
2019-04-10T18:23:40.095Z,42.41
2019-04-10T18:28:43.478Z,42.46
2019-04-10T18:33:46.858Z,43.12
2019-04-10T18:38:50.090Z,43.75
2019-04-10T18:43:53.167Z,43.72
2019-04-10T18:48:55.204Z,44.15
2019-04-10T18:53:57.657Z,44.43
2019-04-10T18:59:12.278Z,44.43
2019-04-10T19:04:20.281Z,45.26
2019-04-10T19:09:28.112Z,44.99
2019-04-10T19:14:34.843Z,45.67
2019-04-10T19:19:38.983Z,45.32
2019-04-10T19:24:41.664Z,45.31
2019-04-10T19:29:43.874Z,45.64
2019-04-10T19:34:46.153Z,45.30
2019-04-10T19:39:48.779Z,45.93
2019-04-10T19:44:51.034Z,46.79
2019-04-10T19:49:53.114Z,46.58
2019-04-10T19:54:55.527Z,46.67
2019-04-10T19:59:57.904Z,46.37
2019-04-10T20:05:01.135Z,47.04
2019-04-10T20:16:00.818Z,46.96
2019-04-10T20:21:03.805Z,47.09
2019-04-10T20:26:07.112Z,47.09
2019-04-10T20:31:15.046Z,46.78
2019-04-10T20:36:17.668Z,47.25
2019-04-10T20:41:19.663Z,47.43
2019-04-10T20:46:22.254Z,47.61
2019-04-10T20:51:24.967Z,47.45
2019-04-10T20:56:27.169Z,47.45
2019-04-10T21:01:29.484Z,48.08
2019-04-10T21:06:31.824Z,48.41
2019-04-10T21:11:33.991Z,48.36
2019-04-10T21:16:36.047Z,48.93
2019-04-10T21:21:39.095Z,49.61
2019-04-10T21:26:41.263Z,49.56
2019-04-10T21:31:59.004Z,50.26
2019-04-10T21:37:01.761Z,51.21
2019-04-10T21:42:14.765Z,51.28
2019-04-10T21:47:08.923Z,51.09
2019-04-10T21:52:11.323Z,51.72
2019-04-10T21:57:13.817Z,51.60
2019-04-10T22:02:16.089Z,51.67
2019-04-10T22:07:44.814Z,52.30
2019-04-10T22:12:49.206Z,52.76
2019-04-10T22:17:52.354Z,52.26
2019-04-10T22:22:55.503Z,52.71
2019-04-10T22:27:58.345Z,53.02
2019-04-10T22:33:00.496Z,53.10
2019-04-10T22:38:02.700Z,53.10
2019-04-10T22:43:05.444Z,54.09
2019-04-10T22:48:08.391Z,53.80
2019-04-10T22:53:10.896Z,54.09
2019-04-10T22:58:13.221Z,54.52
2019-04-10T23:03:15.821Z,54.40
2019-04-10T23:08:17.938Z,54.74
2019-04-10T23:13:20.015Z,54.50
2019-04-10T23:18:23.475Z,54.58
2019-04-10T23:23:25.716Z,54.66
2019-04-10T23:28:27.811Z,55.03
2019-04-10T23:33:30.196Z,55.04
2019-04-10T23:38:33.239Z,55.32
2019-04-10T23:43:35.703Z,55.42
2019-04-10T23:48:37.833Z,55.71
2019-04-10T23:53:40.469Z,55.70
2019-04-10T23:58:42.578Z,55.96
